Time;durP1;ratioP1;P1;durP2;ratioP2;P2;SDS_P1;SDS_P2;PMS_P1;PMS_P2;Temp;Humidity;BMP_temperature;BMP_pressure;BME280_temperature;BME280_humidity;BME280_pressure;Samples;Min_cycle;Max_cycle;Signal;HPM_P1;HPM_P2
2023/05/09 00:00:46;;;;;;;0.50;0.50;;;14.00;99.90;;;;;;5060697;28;20041;-62
2023/05/09 00:03:13;;;;;;;2.10;0.70;;;14.00;99.90;;;;;;5047686;28;20068;-62
2023/05/09 00:05:40;;;;;;;1.05;0.40;;;14.00;99.90;;;;;;5072013;28;20044;-62
2023/05/09 00:08:07;;;;;;;1.08;0.50;;;14.00;99.90;;;;;;5073296;28;20068;-62
2023/05/09 00:10:34;;;;;;;2.90;0.68;;;14.10;99.90;;;;;;5070127;28;20068;-62
2023/05/09 00:13:01;;;;;;;5.13;0.60;;;14.10;99.90;;;;;;5062446;28;20049;-62
2023/05/09 00:15:28;;;;;;;1.65;0.70;;;14.00;99.90;;;;;;5063490;28;20439;-62
2023/05/09 00:17:54;;;;;;;4.47;1.02;;;14.00;99.90;;;;;;5070460;28;20049;-62
2023/05/09 00:20:21;;;;;;;3.28;0.70;;;14.00;99.90;;;;;;5073937;28;20490;-62
2023/05/09 00:22:48;;;;;;;1.67;0.82;;;14.00;99.90;;;;;;5056011;28;20117;-61
2023/05/09 00:25:15;;;;;;;0.77;0.30;;;14.10;99.90;;;;;;5073866;28;20119;-61
2023/05/09 00:27:42;;;;;;;0.82;0.30;;;14.00;99.90;;;;;;5072640;28;20423;-61
2023/05/09 00:30:09;;;;;;;0.75;0.60;;;14.00;99.90;;;;;;5072780;28;20044;-61
2023/05/09 00:35:18;;;;;;;1.63;0.40;;;14.00;99.90;;;;;;5050185;22;20071;-69
2023/05/09 00:37:45;;;;;;;2.25;0.55;;;14.00;99.90;;;;;;5044795;28;20103;-69
2023/05/09 00:40:11;;;;;;;13.95;1.42;;;14.00;99.90;;;;;;5048192;28;20071;-69
2023/05/09 00:42:38;;;;;;;3.25;0.30;;;13.90;99.90;;;;;;5045612;28;20049;-69
2023/05/09 00:45:06;;;;;;;1.27;0.40;;;13.90;99.90;;;;;;4695032;28;10000241;-68
2023/05/09 00:47:33;;;;;;;1.98;0.40;;;13.90;99.90;;;;;;5037991;28;20132;-69
2023/05/09 00:50:00;;;;;;;0.85;0.50;;;13.90;99.90;;;;;;5045237;28;20053;-69
2023/05/09 00:52:27;;;;;;;0.50;0.40;;;13.90;99.90;;;;;;5048490;28;20068;-70
2023/05/09 00:54:54;;;;;;;2.03;0.20;;;13.80;99.90;;;;;;5050225;28;20112;-69
2023/05/09 00:57:21;;;;;;;0.60;0.40;;;13.80;99.90;;;;;;5052642;28;20056;-70
2023/05/09 00:59:48;;;;;;;1.10;0.47;;;13.80;99.90;;;;;;5048235;28;20048;-69
2023/05/09 01:02:16;;;;;;;0.57;0.50;;;13.80;99.90;;;;;;5048164;28;20051;-69
2023/05/09 01:04:44;;;;;;;0.30;0.30;;;13.80;99.90;;;;;;5046272;28;20503;-69
2023/05/09 01:07:14;;;;;;;0.50;0.32;;;13.80;99.90;;;;;;5014096;28;20094;-69
2023/05/09 01:09:50;;;;;;;0.52;0.40;;;13.80;99.90;;;;;;5044962;28;20127;-69
2023/05/09 01:12:32;;;;;;;1.20;0.45;;;13.80;99.90;;;;;;5046448;28;20048;-68
2023/05/09 01:15:05;;;;;;;0.60;0.30;;;13.80;99.90;;;;;;5027907;28;20045;-69
2023/05/09 01:17:34;;;;;;;0.13;0.13;;;13.80;99.90;;;;;;5030386;28;20052;-69
2023/05/09 01:20:09;;;;;;;2.40;0.20;;;13.80;99.90;;;;;;5044253;28;20498;-69
2023/05/09 01:22:38;;;;;;;0.45;0.17;;;13.80;99.90;;;;;;5046491;28;20053;-71
2023/05/09 01:25:42;;;;;;;3.67;0.70;;;13.80;99.90;;;;;;5046337;28;20049;-70
2023/05/09 01:28:32;;;;;;;0.75;0.35;;;13.80;99.90;;;;;;5047108;28;20041;-70
2023/05/09 01:30:58;;;;;;;0.50;0.30;;;13.80;99.90;;;;;;5038673;28;20059;-71
2023/05/09 01:33:26;;;;;;;2.45;0.50;;;13.80;99.90;;;;;;5028863;28;20098;-70
2023/05/09 01:35:56;;;;;;;0.77;0.50;;;13.80;99.90;;;;;;5047004;28;20582;-70
2023/05/09 01:38:23;;;;;;;1.77;0.50;;;13.80;99.90;;;;;;5046202;28;20120;-70
2023/05/09 01:40:52;;;;;;;1.38;0.90;;;13.80;99.90;;;;;;5030472;28;20044;-70
2023/05/09 01:43:19;;;;;;;0.50;0.50;;;13.80;99.90;;;;;;5029263;28;20059;-69
2023/05/09 01:45:47;;;;;;;1.35;0.40;;;13.80;99.90;;;;;;5046325;28;20131;-69
2023/05/09 01:48:13;;;;;;;0.50;0.40;;;13.70;99.90;;;;;;5046567;28;20055;-72
2023/05/09 01:50:40;;;;;;;1.95;0.40;;;13.70;99.90;;;;;;5046062;28;20049;-70
2023/05/09 01:53:07;;;;;;;0.30;0.25;;;13.80;99.90;;;;;;5029694;28;20552;-70
2023/05/09 01:55:34;;;;;;;0.47;0.45;;;13.70;99.90;;;;;;5046089;28;20059;-70
2023/05/09 01:58:03;;;;;;;2.30;0.50;;;13.70;99.90;;;;;;5029315;28;20053;-70
2023/05/09 02:00:31;;;;;;;1.30;0.40;;;13.70;99.90;;;;;;5046839;28;20142;-70
2023/05/09 02:02:57;;;;;;;1.13;0.40;;;13.70;99.90;;;;;;5046497;28;20048;-70
2023/05/09 02:05:28;;;;;;;1.48;0.68;;;13.70;99.90;;;;;;5045933;28;20133;-70
2023/05/09 02:07:58;;;;;;;0.50;0.22;;;13.70;99.90;;;;;;5046094;28;20069;-68
2023/05/09 02:10:26;;;;;;;0.32;0.25;;;13.70;99.90;;;;;;5045899;28;20052;-68
2023/05/09 02:12:53;;;;;;;3.85;0.90;;;13.70;99.90;;;;;;5046915;28;20048;-69
2023/05/09 02:15:20;;;;;;;0.30;0.30;;;13.70;99.90;;;;;;5047442;28;20044;-69
2023/05/09 02:17:47;;;;;;;0.35;0.35;;;13.70;99.90;;;;;;5045501;28;20049;-69
2023/05/09 02:20:14;;;;;;;3.15;0.68;;;13.60;99.90;;;;;;5047077;28;20045;-69
2023/05/09 02:22:41;;;;;;;1.17;0.40;;;13.60;99.90;;;;;;5047904;28;20063;-69
2023/05/09 02:25:09;;;;;;;1.38;0.65;;;13.60;99.90;;;;;;5046800;28;20049;-69
2023/05/09 02:27:37;;;;;;;1.45;0.70;;;13.60;99.90;;;;;;5047052;28;20140;-69
2023/05/09 02:30:07;;;;;;;1.20;0.40;;;13.60;99.90;;;;;;5046019;28;20053;-69
2023/05/09 02:32:34;;;;;;;1.42;0.60;;;13.60;99.90;;;;;;5029658;28;20088;-69
2023/05/09 02:35:02;;;;;;;0.52;0.32;;;13.60;99.90;;;;;;5025447;28;20061;-71
2023/05/09 02:37:29;;;;;;;1.02;0.43;;;13.60;99.90;;;;;;5012862;28;20072;-69
2023/05/09 02:39:56;;;;;;;2.45;0.30;;;13.60;99.90;;;;;;5030623;28;20041;-69
2023/05/09 02:42:24;;;;;;;3.88;0.50;;;13.60;99.90;;;;;;5014277;28;20376;-69
2023/05/09 02:44:54;;;;;;;0.68;0.40;;;13.50;99.90;;;;;;5030011;28;20067;-69
2023/05/09 02:47:21;;;;;;;5.15;0.50;;;13.50;99.90;;;;;;5031182;28;20144;-69
2023/05/09 02:49:47;;;;;;;1.05;0.40;;;13.50;99.90;;;;;;5029488;28;20041;-69
2023/05/09 02:52:14;;;;;;;0.30;0.30;;;13.50;99.90;;;;;;5033140;28;20045;-69
2023/05/09 02:54:41;;;;;;;0.90;0.43;;;13.50;99.90;;;;;;5020378;28;20475;-69
2023/05/09 02:57:07;;;;;;;1.27;0.40;;;13.50;99.90;;;;;;5033856;28;20052;-69
2023/05/09 02:59:34;;;;;;;0.55;0.40;;;13.50;99.90;;;;;;5033992;28;20101;-69
2023/05/09 03:02:01;;;;;;;1.02;0.85;;;13.50;99.90;;;;;;5034001;28;20041;-69
2023/05/09 03:04:28;;;;;;;1.25;0.40;;;13.50;99.90;;;;;;5031161;28;20103;-69
2023/05/09 03:06:55;;;;;;;0.40;0.40;;;13.50;99.90;;;;;;5028163;28;20051;-69
2023/05/09 03:09:21;;;;;;;1.20;0.60;;;13.40;99.90;;;;;;5031825;28;20081;-69
2023/05/09 03:11:49;;;;;;;0.50;0.50;;;13.50;99.90;;;;;;5030313;28;20045;-69
2023/05/09 03:14:15;;;;;;;2.60;0.57;;;13.50;99.90;;;;;;5030455;28;20081;-69
2023/05/09 03:16:42;;;;;;;0.85;0.52;;;13.50;99.90;;;;;;5030675;28;20073;-69
2023/05/09 03:19:09;;;;;;;1.05;0.50;;;13.50;99.90;;;;;;5030978;28;20144;-69
2023/05/09 03:21:36;;;;;;;5.78;0.40;;;13.50;99.90;;;;;;5033990;28;20049;-69
2023/05/09 03:24:03;;;;;;;0.50;0.50;;;13.50;99.90;;;;;;5036770;28;20060;-69
2023/05/09 03:26:30;;;;;;;1.55;0.70;;;13.50;99.90;;;;;;5033758;28;20080;-68
2023/05/09 03:28:57;;;;;;;0.98;0.60;;;13.50;99.90;;;;;;5028895;28;20614;-69
2023/05/09 03:31:24;;;;;;;1.67;0.60;;;13.50;99.90;;;;;;5027242;28;20582;-69
2023/05/09 03:33:51;;;;;;;0.95;0.65;;;13.40;99.90;;;;;;5033754;28;20466;-68
2023/05/09 03:36:17;;;;;;;1.55;0.43;;;13.40;99.90;;;;;;5052289;28;20045;-68
2023/05/09 03:38:44;;;;;;;0.60;0.60;;;13.40;99.90;;;;;;5051133;28;20061;-68
2023/05/09 03:41:12;;;;;;;0.60;0.40;;;13.40;99.90;;;;;;5051563;28;20106;-68
2023/05/09 03:43:38;;;;;;;1.75;0.50;;;13.40;99.90;;;;;;5051115;28;20049;-69
2023/05/09 03:46:05;;;;;;;0.68;0.40;;;13.40;99.90;;;;;;5049966;28;20045;-68
2023/05/09 03:48:32;;;;;;;0.77;0.40;;;13.40;99.90;;;;;;5048974;28;20045;-69
2023/05/09 03:50:58;;;;;;;1.02;0.30;;;13.40;99.90;;;;;;5048485;28;20045;-69
2023/05/09 03:53:25;;;;;;;0.40;0.38;;;13.40;99.90;;;;;;5050064;28;20044;-68
2023/05/09 03:55:52;;;;;;;0.70;0.50;;;13.40;99.90;;;;;;5050261;28;20232;-68
2023/05/09 03:58:19;;;;;;;0.40;0.38;;;13.30;99.90;;;;;;5049378;28;20051;-69
2023/05/09 04:00:46;;;;;;;0.35;0.35;;;13.30;99.90;;;;;;5040315;28;20427;-68
2023/05/09 04:03:12;;;;;;;0.60;0.50;;;13.30;99.90;;;;;;5030771;28;20051;-69
2023/05/09 04:05:39;;;;;;;0.57;0.57;;;13.30;99.90;;;;;;5032513;28;20049;-68
2023/05/09 04:08:06;;;;;;;0.45;0.45;;;13.30;99.90;;;;;;5049837;28;20044;-69
2023/05/09 04:10:33;;;;;;;4.00;0.88;;;13.30;99.90;;;;;;5049168;28;20041;-68
2023/05/09 04:13:00;;;;;;;1.95;0.60;;;13.30;99.90;;;;;;5049913;28;20041;-68
2023/05/09 04:15:26;;;;;;;1.40;0.60;;;13.30;99.90;;;;;;5049142;28;20076;-68
2023/05/09 04:17:53;;;;;;;2.45;0.47;;;13.30;99.90;;;;;;5049450;28;20052;-68
2023/05/09 04:20:20;;;;;;;1.40;1.30;;;13.30;99.90;;;;;;5049400;28;20049;-68
2023/05/09 04:22:47;;;;;;;4.55;0.95;;;13.30;99.90;;;;;;5035558;28;20135;-68
2023/05/09 04:25:14;;;;;;;1.13;0.60;;;13.30;99.90;;;;;;5043572;28;20045;-68
2023/05/09 04:27:41;;;;;;;4.45;0.98;;;13.30;99.90;;;;;;5037746;28;20487;-68
2023/05/09 04:30:09;;;;;;;2.22;0.88;;;13.30;99.90;;;;;;5049231;28;20044;-68
2023/05/09 04:32:37;;;;;;;2.42;1.00;;;13.30;99.90;;;;;;5049398;28;20079;-68
2023/05/09 04:35:05;;;;;;;1.23;1.05;;;13.30;99.90;;;;;;5049052;28;20053;-67
2023/05/09 04:37:32;;;;;;;2.53;1.13;;;13.30;99.90;;;;;;5049035;28;20072;-68
2023/05/09 04:39:58;;;;;;;1.65;1.08;;;13.40;99.90;;;;;;5048784;28;20148;-68
2023/05/09 04:42:25;;;;;;;2.55;1.48;;;13.30;99.90;;;;;;5049326;28;20080;-68
2023/05/09 04:44:52;;;;;;;3.35;1.20;;;13.30;99.90;;;;;;5030994;28;20047;-68
2023/05/09 04:47:18;;;;;;;3.53;1.42;;;13.30;99.90;;;;;;5048870;28;20582;-68
2023/05/09 04:49:45;;;;;;;3.13;1.75;;;13.30;99.90;;;;;;5048164;28;20131;-68
2023/05/09 04:52:12;;;;;;;2.97;1.90;;;13.30;99.90;;;;;;5043234;28;20037;-69
2023/05/09 04:54:39;;;;;;;2.17;1.75;;;13.30;99.90;;;;;;5048252;28;20045;-70
2023/05/09 04:57:05;;;;;;;3.97;2.03;;;13.30;99.90;;;;;;5048843;28;20067;-69
2023/05/09 04:59:43;;;;;;;2.70;1.58;;;13.30;99.90;;;;;;5046282;28;20128;-69
2023/05/09 05:02:09;;;;;;;4.43;2.28;;;13.20;99.90;;;;;;5030662;28;20418;-68
2023/05/09 05:04:36;;;;;;;3.55;2.20;;;13.20;99.90;;;;;;5048559;28;20045;-69
2023/05/09 05:07:04;;;;;;;2.65;1.90;;;13.20;99.90;;;;;;5048554;28;20049;-67
2023/05/09 05:09:30;;;;;;;2.85;2.50;;;13.30;99.90;;;;;;5048339;28;20148;-69
2023/05/09 05:11:57;;;;;;;4.00;2.55;;;13.20;99.90;;;;;;5048288;28;20079;-67
2023/05/09 05:14:29;;;;;;;2.45;2.25;;;13.30;99.90;;;;;;5036798;28;20095;-68
2023/05/09 05:16:56;;;;;;;5.10;2.72;;;13.30;99.90;;;;;;5048597;28;20052;-68
2023/05/09 05:19:23;;;;;;;5.93;3.20;;;13.20;99.90;;;;;;5047789;28;20048;-68
2023/05/09 05:21:49;;;;;;;3.30;2.90;;;13.30;99.90;;;;;;5047903;28;20040;-68
2023/05/09 05:24:16;;;;;;;3.97;2.88;;;13.20;99.90;;;;;;5047636;28;20053;-67
2023/05/09 05:26:43;;;;;;;5.00;3.10;;;13.30;99.90;;;;;;5030086;28;20059;-68
2023/05/09 05:29:09;;;;;;;4.75;3.80;;;13.30;99.90;;;;;;5048154;28;20419;-68
2023/05/09 05:31:36;;;;;;;6.47;3.40;;;13.30;99.90;;;;;;5048359;28;20060;-68
2023/05/09 05:34:03;;;;;;;6.50;3.53;;;13.30;99.90;;;;;;5048128;28;20052;-68
2023/05/09 05:36:31;;;;;;;5.25;3.25;;;13.30;99.90;;;;;;5047655;28;20542;-67
2023/05/09 05:38:57;;;;;;;6.18;3.38;;;13.30;99.90;;;;;;5047494;28;20053;-67
2023/05/09 05:41:25;;;;;;;4.38;3.55;;;13.30;99.90;;;;;;5047382;28;20045;-68
2023/05/09 05:43:51;;;;;;;5.63;3.17;;;13.40;99.90;;;;;;5039960;28;20068;-69
2023/05/09 05:46:20;;;;;;;4.82;3.35;;;13.30;99.90;;;;;;5046304;28;20048;-69
2023/05/09 05:48:46;;;;;;;7.93;5.05;;;13.30;99.90;;;;;;5051278;28;20109;-69
2023/05/09 05:51:13;;;;;;;6.25;3.92;;;13.40;99.90;;;;;;5050074;28;20132;-68
2023/05/09 05:53:40;;;;;;;5.53;4.03;;;13.40;99.90;;;;;;5048366;28;20048;-69
2023/05/09 05:56:07;;;;;;;5.30;4.07;;;13.40;99.90;;;;;;5048449;28;20119;-69
2023/05/09 05:58:33;;;;;;;4.30;3.75;;;13.30;99.90;;;;;;5047694;28;20113;-69
2023/05/09 06:01:01;;;;;;;4.40;3.42;;;13.40;99.90;;;;;;5044839;28;20563;-67
2023/05/09 06:03:31;;;;;;;6.07;4.55;;;13.40;99.90;;;;;;5043408;28;20053;-68
2023/05/09 06:05:58;;;;;;;6.10;4.13;;;13.40;99.90;;;;;;5044890;28;20048;-67
2023/05/09 06:08:25;;;;;;;8.80;4.55;;;13.40;99.90;;;;;;5045705;28;20049;-67
2023/05/09 06:10:51;;;;;;;5.03;4.50;;;13.50;99.90;;;;;;5047265;28;20063;-69
2023/05/09 06:13:18;;;;;;;5.38;4.32;;;13.50;99.90;;;;;;5049639;28;20045;-67
2023/05/09 06:15:45;;;;;;;6.32;4.03;;;13.60;99.90;;;;;;5050927;28;20495;-67
2023/05/09 06:18:12;;;;;;;7.15;4.22;;;13.60;99.90;;;;;;5049727;28;20041;-68
2023/05/09 06:20:38;;;;;;;7.43;4.32;;;13.70;99.90;;;;;;5048868;28;20132;-67
2023/05/09 06:23:05;;;;;;;5.22;4.40;;;13.70;99.90;;;;;;5046202;28;20103;-68
2023/05/09 06:25:32;;;;;;;7.50;4.43;;;13.60;99.90;;;;;;5044580;28;20052;-67
2023/05/09 06:27:59;;;;;;;5.60;4.43;;;13.70;99.90;;;;;;5039100;28;20556;-67
2023/05/09 06:30:26;;;;;;;7.70;4.72;;;13.70;99.90;;;;;;5043405;28;20049;-67
2023/05/09 06:32:57;;;;;;;7.22;4.53;;;13.80;99.90;;;;;;5029926;28;20151;-70
2023/05/09 06:35:24;;;;;;;5.85;4.10;;;13.80;99.90;;;;;;5048758;28;20092;-68
2023/05/09 06:37:50;;;;;;;7.30;5.00;;;13.80;99.90;;;;;;5049163;28;20036;-68
2023/05/09 06:40:17;;;;;;;5.93;3.92;;;13.80;99.90;;;;;;5046916;28;20094;-68
2023/05/09 06:42:44;;;;;;;5.72;4.97;;;13.80;99.90;;;;;;5043550;28;20045;-68
2023/05/09 06:45:11;;;;;;;7.65;5.30;;;13.90;99.90;;;;;;5048898;28;20595;-66
2023/05/09 06:47:38;;;;;;;7.82;3.80;;;13.90;99.90;;;;;;5048589;28;20052;-67
2023/05/09 06:50:05;;;;;;;6.95;3.88;;;13.90;99.90;;;;;;5048776;28;20085;-66
2023/05/09 06:52:32;;;;;;;8.32;4.93;;;13.90;99.90;;;;;;5048806;28;20128;-66
2023/05/09 06:54:59;;;;;;;6.03;4.63;;;14.00;99.90;;;;;;5048832;28;20067;-66
2023/05/09 06:57:26;;;;;;;4.97;3.42;;;14.00;99.90;;;;;;5050138;28;20064;-68
2023/05/09 06:59:52;;;;;;;8.23;4.47;;;14.00;99.90;;;;;;5049509;28;20504;-67
2023/05/09 07:02:19;;;;;;;6.93;4.20;;;13.90;99.90;;;;;;5050057;28;20132;-67
2023/05/09 07:04:46;;;;;;;5.22;4.25;;;14.00;99.90;;;;;;5029222;28;20045;-67
2023/05/09 07:07:16;;;;;;;5.70;4.25;;;14.00;99.90;;;;;;5049297;28;20052;-67
2023/05/09 07:09:42;;;;;;;5.72;4.35;;;14.00;99.90;;;;;;5048004;28;20076;-67
2023/05/09 07:12:09;;;;;;;7.43;5.10;;;13.90;99.90;;;;;;5048970;28;20040;-67
2023/05/09 07:14:37;;;;;;;7.15;4.88;;;14.00;99.90;;;;;;5048872;28;20037;-66
2023/05/09 07:17:04;;;;;;;6.43;3.75;;;14.10;99.90;;;;;;5048712;28;20407;-66
2023/05/09 07:19:48;;;;;;;5.82;4.65;;;14.10;99.90;;;;;;5036396;28;20052;-66
2023/05/09 07:22:15;;;;;;;8.80;4.57;;;14.00;99.90;;;;;;5043148;28;20117;-67
2023/05/09 07:24:45;;;;;;;5.80;4.03;;;14.00;99.90;;;;;;5036442;28;20053;-67
2023/05/09 07:27:14;;;;;;;6.90;4.75;;;14.10;99.90;;;;;;5036879;28;20518;-66
2023/05/09 07:29:41;;;;;;;6.80;4.15;;;14.10;99.90;;;;;;5047671;28;20140;-68
2023/05/09 07:32:08;;;;;;;6.00;4.47;;;14.10;99.90;;;;;;5034792;28;20044;-67
2023/05/09 07:34:35;;;;;;;9.73;3.88;;;14.30;99.90;;;;;;5028790;28;20093;-65
2023/05/09 07:37:02;;;;;;;8.57;4.28;;;14.30;99.90;;;;;;5029947;28;20103;-66
2023/05/09 07:39:29;;;;;;;7.10;3.60;;;14.40;99.90;;;;;;5029524;28;20060;-66
2023/05/09 07:41:56;;;;;;;7.85;4.00;;;14.50;99.90;;;;;;5028452;28;20053;-67
2023/05/09 07:44:23;;;;;;;18.65;4.20;;;14.60;99.90;;;;;;5028652;28;20099;-66
2023/05/09 07:46:49;;;;;;;29.92;5.30;;;14.50;99.90;;;;;;5026231;28;20464;-66
2023/05/09 07:49:16;;;;;;;9.25;4.20;;;14.60;99.90;;;;;;5016630;28;20056;-67
2023/05/09 07:51:43;;;;;;;6.90;4.38;;;14.60;99.90;;;;;;5029194;28;20132;-66
2023/05/09 07:54:10;;;;;;;9.73;4.15;;;14.60;99.90;;;;;;5017272;28;20037;-66
2023/05/09 07:56:37;;;;;;;7.18;3.75;;;14.70;99.90;;;;;;5026127;28;20045;-67
2023/05/09 07:59:03;;;;;;;4.80;3.25;;;14.70;99.90;;;;;;5029029;28;20049;-66
2023/05/09 08:01:30;;;;;;;8.82;4.55;;;14.70;99.90;;;;;;5029456;28;20093;-66
2023/05/09 08:03:57;;;;;;;4.47;3.53;;;14.70;99.90;;;;;;5027849;28;20697;-65
2023/05/09 08:06:25;;;;;;;6.70;3.65;;;14.70;99.90;;;;;;5028432;28;20080;-66
2023/05/09 08:08:51;;;;;;;4.95;3.40;;;14.80;99.90;;;;;;4674615;28;10000202;-65
2023/05/09 08:11:18;;;;;;;7.22;3.50;;;14.80;99.90;;;;;;5025823;28;20092;-66
2023/05/09 08:13:45;;;;;;;5.40;3.50;;;14.80;99.90;;;;;;5030512;28;20109;-66
2023/05/09 08:16:12;;;;;;;46.47;6.47;;;14.90;99.90;;;;;;5030579;28;20103;-66
2023/05/09 08:18:39;;;;;;;4.10;3.63;;;14.90;99.90;;;;;;5029418;28;20045;-69
2023/05/09 08:21:06;;;;;;;10.10;3.28;;;15.10;99.90;;;;;;5029753;28;20084;-65
2023/05/09 08:23:33;;;;;;;17.40;3.83;;;15.10;99.90;;;;;;5029382;28;20041;-66
2023/05/09 08:25:59;;;;;;;5.13;2.53;;;15.20;99.90;;;;;;5029124;28;20049;-66
2023/05/09 08:28:27;;;;;;;4.53;2.63;;;15.30;99.90;;;;;;5029260;28;20053;-66
2023/05/09 08:30:55;;;;;;;8.90;2.60;;;15.20;99.90;;;;;;5027388;28;20048;-66
2023/05/09 08:33:23;;;;;;;8.60;2.55;;;15.30;99.90;;;;;;5024539;28;20103;-65
2023/05/09 08:35:50;;;;;;;6.13;2.92;;;15.40;99.90;;;;;;5048506;28;20384;-66
2023/05/09 08:38:17;;;;;;;6.90;2.38;;;15.40;99.90;;;;;;5048000;28;20465;-66
2023/05/09 08:40:44;;;;;;;6.55;2.80;;;15.50;99.90;;;;;;5036419;28;20053;-66
2023/05/09 08:43:11;;;;;;;8.25;2.38;;;15.50;99.90;;;;;;5045906;28;20041;-66
2023/05/09 08:45:44;;;;;;;8.93;2.42;;;15.50;99.90;;;;;;5031166;28;20045;-65
2023/05/09 08:48:10;;;;;;;8.73;3.33;;;15.60;99.90;;;;;;5048044;28;20059;-66
2023/05/09 08:50:39;;;;;;;3.70;2.20;;;15.60;99.90;;;;;;5048573;28;20052;-66
2023/05/09 08:53:05;;;;;;;6.55;2.15;;;15.70;99.90;;;;;;5030363;28;20519;-66
2023/05/09 08:55:32;;;;;;;9.98;3.25;;;15.50;99.90;;;;;;5031129;28;20131;-66
2023/05/09 08:57:59;;;;;;;2.58;2.20;;;15.50;99.90;;;;;;5046991;28;20056;-66
2023/05/09 09:00:26;;;;;;;12.25;2.70;;;15.50;99.90;;;;;;5047626;28;20153;-66
2023/05/09 09:02:53;;;;;;;3.85;2.28;;;15.60;99.90;;;;;;5013333;28;20037;-66
2023/05/09 09:05:20;;;;;;;3.58;2.08;;;15.60;99.90;;;;;;5046544;28;20052;-66
2023/05/09 09:08:07;;;;;;;3.05;2.17;;;15.80;99.90;;;;;;5025395;28;20098;-66
2023/05/09 09:10:34;;;;;;;5.35;2.13;;;15.90;99.90;;;;;;5040598;28;20044;-66
2023/05/09 09:13:03;;;;;;;5.03;1.90;;;16.00;99.90;;;;;;5013817;28;20049;-66
2023/05/09 09:15:37;;;;;;;4.07;1.58;;;16.00;99.90;;;;;;5009722;28;20076;-65
2023/05/09 09:18:08;;;;;;;;;;;16.00;99.90;;;;;;5045601;28;20072;-66
2023/05/09 09:20:51;;;;;;;4.97;1.92;;;16.10;99.90;;;;;;5047664;28;19924;-66
2023/05/09 09:23:19;;;;;;;2.20;1.42;;;16.00;99.90;;;;;;5046863;28;20119;-66
2023/05/09 09:25:46;;;;;;;4.03;2.13;;;16.00;99.90;;;;;;5046660;28;20499;-66
2023/05/09 09:28:13;;;;;;;6.22;1.67;;;15.80;99.90;;;;;;5047919;28;20044;-66
2023/05/09 09:30:44;;;;;;;3.67;2.60;;;15.70;99.90;;;;;;5047117;28;20146;-66
2023/05/09 09:33:18;;;;;;;9.27;2.25;;;15.70;99.90;;;;;;5036624;28;20049;-66
2023/05/09 09:35:45;;;;;;;;;;;15.60;99.90;;;;;;5048459;28;20052;-69
2023/05/09 09:38:11;;;;;;;4.40;2.28;;;15.50;99.90;;;;;;5029852;28;19921;-68
2023/05/09 09:40:39;;;;;;;5.07;1.90;;;15.60;99.90;;;;;;5047434;28;20550;-65
2023/05/09 09:43:06;;;;;;;6.72;2.00;;;15.80;99.90;;;;;;5047903;28;20122;-66
2023/05/09 09:45:33;;;;;;;4.80;2.40;;;15.90;99.90;;;;;;5038022;28;20055;-67
2023/05/09 09:48:00;;;;;;;6.53;2.40;;;15.80;99.90;;;;;;5047115;28;20056;-66
2023/05/09 09:50:27;;;;;;;3.00;2.05;;;15.80;99.90;;;;;;5029584;28;20037;-67
2023/05/09 09:52:55;;;;;;;5.38;2.00;;;15.70;99.90;;;;;;5047392;28;20131;-66
2023/05/09 09:55:23;;;;;;;3.78;2.30;;;15.80;99.90;;;;;;5047383;28;20144;-65
2023/05/09 09:57:50;;;;;;;6.13;1.75;;;16.00;99.90;;;;;;5047984;28;20160;-67
2023/05/09 10:00:18;;;;;;;5.93;1.60;;;16.00;99.90;;;;;;5045323;28;20045;-66
2023/05/09 10:02:49;;;;;;;3.20;1.60;;;16.00;99.90;;;;;;5048008;28;20080;-66
2023/05/09 10:05:22;;;;;;;5.25;1.67;;;15.90;99.90;;;;;;5047181;28;20049;-67
2023/05/09 10:07:57;;;;;;;4.43;1.75;;;15.90;99.90;;;;;;5047513;28;20139;-66
2023/05/09 10:10:31;;;;;;;2.97;1.67;;;16.00;99.90;;;;;;5047457;28;20052;-66
2023/05/09 10:13:03;;;;;;;7.22;1.55;;;16.10;99.90;;;;;;5047648;28;20632;-67
2023/05/09 10:15:30;;;;;;;4.82;1.50;;;16.10;99.90;;;;;;5047233;28;20049;-67
2023/05/09 10:18:11;;;;;;;2.60;1.50;;;16.10;99.90;;;;;;5047436;28;20041;-67
2023/05/09 10:20:39;;;;;;;5.85;1.70;;;16.20;99.90;;;;;;5029755;28;20045;-67
2023/05/09 10:23:06;;;;;;;6.93;1.55;;;16.40;99.90;;;;;;5047883;28;20419;-67
2023/05/09 10:25:42;;;;;;;5.60;2.17;;;16.40;99.90;;;;;;5046105;28;20047;-67
2023/05/09 10:28:13;;;;;;;9.75;1.83;;;16.50;99.90;;;;;;5047003;28;20053;-67
2023/05/09 10:30:51;;;;;;;6.30;1.70;;;16.40;99.90;;;;;;5009677;28;20140;-67
2023/05/09 10:33:20;;;;;;;4.88;1.30;;;16.40;99.90;;;;;;5047007;28;20048;-67
2023/05/09 10:35:47;;;;;;;2.30;1.48;;;16.50;99.90;;;;;;5029916;28;20151;-68
2023/05/09 10:38:13;;;;;;;4.25;1.77;;;16.70;99.90;;;;;;5030132;28;20136;-67
2023/05/09 10:40:40;;;;;;;4.00;1.40;;;16.70;99.90;;;;;;5048555;28;20071;-68
2023/05/09 10:43:07;;;;;;;2.42;1.50;;;16.80;99.90;;;;;;5049757;28;20521;-67
2023/05/09 10:45:34;;;;;;;10.00;1.60;;;17.00;99.90;;;;;;5049242;28;20183;-66
2023/05/09 10:48:02;;;;;;;3.53;1.48;;;17.10;99.90;;;;;;5046054;28;20049;-67
2023/05/09 10:50:29;;;;;;;2.03;1.35;;;17.30;99.90;;;;;;5047417;28;20556;-67
2023/05/09 10:53:02;;;;;;;5.85;1.90;;;17.20;99.90;;;;;;5029442;28;20115;-67
2023/05/09 10:55:57;;;;;;;4.47;1.60;;;17.10;99.90;;;;;;5047571;28;20051;-66
2023/05/09 10:58:32;;;;;;;12.02;2.40;;;17.00;99.90;;;;;;5040640;28;20073;-65
2023/05/09 11:01:00;;;;;;;5.15;1.70;;;17.10;99.90;;;;;;5038912;28;20044;-66
2023/05/09 11:03:27;;;;;;;5.30;1.27;;;17.20;99.90;;;;;;5050360;28;20049;-66
2023/05/09 11:05:55;;;;;;;5.80;1.33;;;17.20;99.90;;;;;;5050623;28;20073;-66
2023/05/09 11:08:29;;;;;;;5.90;1.92;;;17.20;99.90;;;;;;5050616;28;20128;-66
2023/05/09 11:10:56;;;;;;;;;;;17.30;99.90;;;;;;5050934;28;20494;-66
2023/05/09 11:13:24;;;;;;;4.43;1.17;;;17.30;99.90;;;;;;5033394;28;20003;-66
2023/05/09 11:16:00;;;;;;;9.55;2.50;;;17.60;99.90;;;;;;5052148;28;20083;-67
2023/05/09 11:18:27;;;;;;;4.18;2.10;;;17.90;99.90;;;;;;5050947;28;20068;-67
2023/05/09 11:20:54;;;;;;;5.50;1.55;;;18.10;99.90;;;;;;5050609;28;20549;-68
2023/05/09 11:23:25;;;;;;;11.93;1.98;;;18.10;99.90;;;;;;5050838;28;20411;-68
2023/05/09 11:25:52;;;;;;;3.42;1.90;;;18.00;99.90;;;;;;5051430;28;20051;-68
2023/05/09 11:28:32;;;;;;;3.97;1.20;;;17.90;99.90;;;;;;5052141;28;20419;-67
2023/05/09 11:31:09;;;;;;;5.40;1.50;;;18.00;99.90;;;;;;5035154;28;20419;-67
2023/05/09 11:33:36;;;;;;;5.50;1.83;;;18.00;99.90;;;;;;5032279;28;20155;-67
2023/05/09 11:36:28;;;;;;;5.07;1.58;;;18.00;99.90;;;;;;5050515;28;20399;-67
2023/05/09 11:39:05;;;;;;;8.80;2.78;;;17.70;99.90;;;;;;5050669;28;20417;-67
2023/05/09 11:41:42;;;;;;;12.05;2.00;;;17.60;99.90;;;;;;5050262;28;20049;-67
2023/05/09 11:44:16;;;;;;;10.07;1.90;;;17.60;99.90;;;;;;5047104;28;20572;-67
2023/05/09 11:46:44;;;;;;;5.00;2.00;;;17.70;99.90;;;;;;5050119;28;20615;-67
2023/05/09 11:49:11;;;;;;;3.35;1.55;;;17.70;99.90;;;;;;5049544;28;20076;-67
2023/05/09 11:51:38;;;;;;;11.73;2.20;;;17.50;99.90;;;;;;5050267;28;20495;-66
2023/05/09 11:54:06;;;;;;;3.88;1.65;;;17.40;99.90;;;;;;5049601;28;20037;-67
2023/05/09 11:56:37;;;;;;;6.55;1.60;;;17.40;99.90;;;;;;5032066;28;20044;-67
2023/05/09 11:59:04;;;;;;;5.72;1.75;;;17.40;99.90;;;;;;5048286;28;20071;-66
2023/05/09 12:01:31;;;;;;;3.30;1.50;;;17.40;99.90;;;;;;5050664;28;20137;-66
2023/05/09 12:04:00;;;;;;;8.00;2.53;;;17.40;99.90;;;;;;5050158;28;20069;-67
2023/05/09 12:06:28;;;;;;;6.50;1.80;;;17.50;99.90;;;;;;5049884;28;20049;-67
2023/05/09 12:08:58;;;;;;;5.93;2.00;;;17.50;99.90;;;;;;5050792;28;20077;-66
2023/05/09 12:11:25;;;;;;;8.40;2.20;;;17.60;99.90;;;;;;5050837;28;20136;-66
2023/05/09 12:13:52;;;;;;;6.32;2.03;;;17.60;99.90;;;;;;5032316;28;20048;-68
2023/05/09 12:16:20;;;;;;;8.07;2.70;;;17.70;99.90;;;;;;5050097;28;20045;-66
2023/05/09 12:18:51;;;;;;;9.73;1.90;;;17.60;99.90;;;;;;5048367;28;20503;-66
2023/05/09 12:21:18;;;;;;;11.65;2.75;;;17.50;99.90;;;;;;5049611;28;20098;-66
2023/05/09 12:23:45;;;;;;;9.50;2.67;;;17.60;99.90;;;;;;5031427;28;20748;-67
2023/05/09 12:26:16;;;;;;;9.10;1.80;;;17.70;99.90;;;;;;5049327;28;20053;-66
2023/05/09 12:28:43;;;;;;;6.10;1.73;;;17.80;99.90;;;;;;5048186;28;20072;-67
2023/05/09 12:31:09;;;;;;;21.67;3.03;;;17.80;99.90;;;;;;5031260;28;20063;-66
2023/05/09 12:33:37;;;;;;;4.95;1.80;;;17.80;99.90;;;;;;5047240;28;20664;-67
2023/05/09 12:36:09;;;;;;;12.18;2.55;;;17.90;99.90;;;;;;5048132;28;20045;-68
2023/05/09 12:38:37;;;;;;;13.35;2.20;;;18.00;99.90;;;;;;5047878;28;20060;-67
2023/05/09 12:41:04;;;;;;;6.22;2.40;;;17.90;99.90;;;;;;5048811;28;20045;-67
2023/05/09 12:43:34;;;;;;;7.57;2.03;;;18.00;99.90;;;;;;5047654;28;20135;-66
2023/05/09 12:46:01;;;;;;;10.90;2.30;;;18.00;99.90;;;;;;5047726;28;20488;-66
2023/05/09 12:48:29;;;;;;;8.10;2.20;;;18.10;99.90;;;;;;5048373;28;20079;-67
2023/05/09 12:50:55;;;;;;;9.93;2.13;;;18.30;99.90;;;;;;5031011;28;20136;-67
2023/05/09 12:53:24;;;;;;;7.68;2.33;;;18.50;99.90;;;;;;5048837;28;20055;-68
2023/05/09 12:55:55;;;;;;;6.82;2.00;;;18.60;99.90;;;;;;5048568;28;20052;-68